Time;durP1;ratioP1;P1;durP2;ratioP2;P2;SDS_P1;SDS_P2;PMS_P1;PMS_P2;Temp;Humidity;BMP_temperature;BMP_pressure;BME280_temperature;BME280_humidity;BME280_pressure;Samples;Min_cycle;Max_cycle;Signal;HPM_P1;HPM_P2
2022/03/17 00:01:30;;;;;;;27.40;24.80;;;11.00;31.60;;;;;;10313073;28;20227;-74
2022/03/17 00:06:35;;;;;;;28.10;25.40;;;11.00;31.60;;;;;;10315882;28;20243;-74
2022/03/17 00:11:38;;;;;;;27.00;24.40;;;10.90;31.70;;;;;;10307630;28;20228;-75
2022/03/17 00:16:41;;;;;;;28.23;25.53;;;10.90;31.60;;;;;;10315295;28;20239;-75
2022/03/17 00:21:46;;;;;;;29.50;26.77;;;10.90;31.70;;;;;;10315769;28;20293;-75
2022/03/17 00:26:49;;;;;;;29.60;26.80;;;10.90;31.90;;;;;;10317508;28;20235;-75
2022/03/17 00:31:52;;;;;;;30.07;27.07;;;10.80;31.60;;;;;;10320769;28;20266;-75
2022/03/17 00:36:58;;;;;;;28.33;25.63;;;10.80;31.70;;;;;;10320303;28;20243;-75
2022/03/17 00:42:01;;;;;;;27.60;24.87;;;10.80;31.80;;;;;;10315790;28;20318;-75
2022/03/17 00:47:05;;;;;;;30.07;27.27;;;10.80;31.70;;;;;;10316239;28;20254;-75
2022/03/17 00:52:11;;;;;;;28.93;26.13;;;10.80;31.80;;;;;;10314810;28;20603;-75
2022/03/17 00:57:15;;;;;;;27.90;25.20;;;10.70;31.80;;;;;;10307724;28;20238;-75
2022/03/17 01:02:18;;;;;;;29.30;26.40;;;10.70;31.80;;;;;;10339296;28;20239;-75
2022/03/17 01:07:24;;;;;;;30.20;27.23;;;10.70;31.90;;;;;;10313413;28;20262;-75
2022/03/17 01:12:27;;;;;;;30.20;27.40;;;10.70;32.00;;;;;;10314268;28;20264;-75
2022/03/17 01:17:30;;;;;;;28.07;25.47;;;10.70;31.90;;;;;;10315156;28;20236;-75
2022/03/17 01:22:35;;;;;;;28.07;25.43;;;10.60;31.90;;;;;;10319423;28;20230;-75
2022/03/17 01:27:39;;;;;;;29.30;26.60;;;10.60;32.00;;;;;;10314763;28;20237;-75
2022/03/17 01:32:42;;;;;;;30.37;27.37;;;10.60;32.00;;;;;;10313255;28;20239;-75
2022/03/17 01:37:46;;;;;;;31.00;28.10;;;10.60;32.10;;;;;;10335181;28;20246;-75
2022/03/17 01:42:49;;;;;;;29.77;27.00;;;10.60;32.20;;;;;;10328239;28;20243;-74
2022/03/17 01:47:53;;;;;;;29.07;26.23;;;10.60;32.10;;;;;;10322045;28;20629;-75
2022/03/17 01:52:58;;;;;;;30.57;27.67;;;10.60;32.10;;;;;;10320769;28;20600;-75
2022/03/17 01:58:01;;;;;;;30.93;28.03;;;10.60;32.40;;;;;;10317343;28;20235;-75
2022/03/17 02:03:04;;;;;;;30.97;27.97;;;10.60;32.30;;;;;;10319055;28;20222;-75
2022/03/17 02:08:09;;;;;;;32.50;29.20;;;10.60;32.40;;;;;;10320543;28;20254;-75
2022/03/17 02:13:12;;;;;;;31.23;28.23;;;10.50;32.50;;;;;;10322474;28;20601;-74
2022/03/17 02:18:16;;;;;;;31.60;28.40;;;10.50;32.30;;;;;;10332162;28;20246;-75
2022/03/17 02:28:42;;;;;;;30.70;27.73;;;10.50;32.60;;;;;;10313408;28;20234;-75
2022/03/17 02:33:46;;;;;;;30.40;27.47;;;10.50;32.50;;;;;;10319430;28;20257;-75
2022/03/17 02:38:51;;;;;;;31.43;28.33;;;10.40;32.60;;;;;;10316947;28;20678;-74
2022/03/17 02:43:55;;;;;;;31.37;28.37;;;10.40;32.90;;;;;;10324919;28;20239;-75
2022/03/17 02:49:02;;;;;;;30.93;27.80;;;10.40;32.70;;;;;;10319398;28;20252;-75
2022/03/17 02:54:07;;;;;;;32.00;28.90;;;10.30;32.90;;;;;;10318146;28;20267;-75
2022/03/17 02:59:10;;;;;;;30.53;27.53;;;10.30;33.00;;;;;;10335885;28;20242;-75
2022/03/17 03:04:16;;;;;;;33.27;30.03;;;10.30;33.00;;;;;;10321325;28;20238;-75
2022/03/17 03:09:21;;;;;;;34.33;30.83;;;10.30;33.10;;;;;;10318206;28;20508;-75
2022/03/17 03:14:24;;;;;;;31.50;28.43;;;10.20;33.60;;;;;;10317755;28;20241;-74
2022/03/17 03:19:27;;;;;;;32.57;29.33;;;10.20;33.20;;;;;;10324036;28;20273;-75
2022/03/17 03:24:31;;;;;;;32.73;29.60;;;10.20;33.30;;;;;;10322639;28;20588;-74
2022/03/17 03:29:35;;;;;;;33.13;29.90;;;10.20;33.60;;;;;;10317794;28;20227;-75
2022/03/17 03:34:38;;;;;;;32.77;29.37;;;10.20;33.40;;;;;;10317403;28;20239;-74
2022/03/17 03:39:42;;;;;;;33.20;29.83;;;10.10;33.40;;;;;;10317316;28;20250;-75
2022/03/17 03:44:46;;;;;;;32.40;29.07;;;10.20;33.70;;;;;;10316819;28;20248;-74
2022/03/17 03:49:51;;;;;;;30.10;27.13;;;10.20;33.40;;;;;;10338486;28;20230;-74
2022/03/17 03:54:56;;;;;;;31.83;28.73;;;10.20;33.40;;;;;;10337644;28;20305;-74
2022/03/17 03:59:59;;;;;;;31.93;28.90;;;10.20;33.50;;;;;;10330120;28;20265;-75
2022/03/17 04:05:02;;;;;;;34.20;30.77;;;10.20;33.40;;;;;;10315926;28;20261;-75
2022/03/17 04:10:08;;;;;;;33.10;30.03;;;10.20;33.40;;;;;;10316575;28;20237;-75
2022/03/17 04:15:11;;;;;;;32.33;29.27;;;10.20;33.60;;;;;;10320932;28;20246;-74
2022/03/17 04:20:14;;;;;;;32.27;28.97;;;10.20;33.40;;;;;;10316472;28;20365;-75
2022/03/17 04:25:19;;;;;;;29.03;26.23;;;10.20;33.30;;;;;;10315507;28;20238;-75
2022/03/17 04:30:22;;;;;;;31.50;28.30;;;10.20;33.60;;;;;;10315869;28;20242;-74
2022/03/17 04:35:26;;;;;;;31.93;28.77;;;10.20;33.30;;;;;;10316027;28;20238;-75
2022/03/17 04:40:30;;;;;;;31.50;28.40;;;10.20;33.30;;;;;;10315731;28;20235;-75
2022/03/17 04:45:33;;;;;;;30.00;27.03;;;10.20;33.50;;;;;;10322594;28;20239;-74
2022/03/17 04:50:37;;;;;;;28.97;26.10;;;10.20;33.20;;;;;;10304933;28;20257;-74
2022/03/17 04:55:41;;;;;;;30.40;27.47;;;10.20;33.00;;;;;;10327191;28;20246;-75
2022/03/17 05:00:45;;;;;;;29.67;26.87;;;10.20;33.40;;;;;;10321866;28;20235;-75
2022/03/17 05:05:49;;;;;;;31.27;28.37;;;10.20;33.20;;;;;;10328893;28;20252;-75
2022/03/17 05:10:54;;;;;;;30.77;27.77;;;10.20;33.00;;;;;;10323486;28;20668;-77
2022/03/17 05:15:58;;;;;;;29.57;26.73;;;10.20;33.30;;;;;;10322447;28;20786;-75
2022/03/17 05:21:01;;;;;;;31.70;28.57;;;10.20;33.10;;;;;;10314384;28;20229;-76
2022/03/17 05:26:08;;;;;;;30.73;27.70;;;10.10;33.20;;;;;;10322462;28;20239;-76
2022/03/17 05:31:11;;;;;;;31.30;28.30;;;10.10;33.40;;;;;;10329645;28;20281;-76
2022/03/17 05:36:15;;;;;;;35.63;32.13;;;10.10;33.90;;;;;;10329798;28;20631;-74
2022/03/17 05:41:19;;;;;;;31.90;28.70;;;10.10;33.30;;;;;;10330858;28;20242;-74
2022/03/17 05:46:25;;;;;;;33.00;29.80;;;10.00;33.40;;;;;;10331190;28;20245;-77
2022/03/17 05:51:28;;;;;;;32.23;29.03;;;10.00;33.40;;;;;;10330940;28;20233;-76
2022/03/17 05:56:33;;;;;;;31.37;28.23;;;10.00;33.30;;;;;;10330490;28;20584;-73
2022/03/17 06:01:36;;;;;;;31.50;28.53;;;10.00;33.40;;;;;;10329193;28;20227;-76
2022/03/17 06:06:39;;;;;;;30.37;27.43;;;9.90;34.20;;;;;;10326116;28;20238;-75
2022/03/17 06:11:44;;;;;;;29.90;26.90;;;9.90;34.20;;;;;;10323728;28;20238;-75
2022/03/17 06:16:47;;;;;;;32.40;29.27;;;9.80;34.80;;;;;;10322030;28;20243;-76
2022/03/17 06:21:50;;;;;;;32.87;29.57;;;9.80;34.60;;;;;;10327076;28;20741;-76
2022/03/17 06:26:55;;;;;;;31.80;28.70;;;9.80;34.50;;;;;;10329224;28;20247;-76
2022/03/17 06:31:58;;;;;;;33.67;30.40;;;9.80;34.70;;;;;;10329287;28;20237;-76
2022/03/17 06:37:01;;;;;;;32.17;28.93;;;9.80;34.70;;;;;;10328658;28;20609;-76
2022/03/17 06:42:07;;;;;;;32.47;29.23;;;9.80;34.70;;;;;;10328646;28;20238;-76
2022/03/17 06:47:10;;;;;;;32.73;29.53;;;9.80;34.90;;;;;;10328460;28;20235;-76
2022/03/17 06:52:13;;;;;;;31.13;28.17;;;9.80;34.70;;;;;;10328304;28;20231;-76
2022/03/17 06:57:22;;;;;;;33.20;29.90;;;9.90;34.70;;;;;;10327931;28;20246;-76
2022/03/17 07:02:25;;;;;;;31.67;28.57;;;9.90;35.40;;;;;;10327934;28;20241;-76
2022/03/17 07:07:29;;;;;;;31.63;28.53;;;10.00;34.10;;;;;;10327932;28;20258;-73
2022/03/17 07:12:33;;;;;;;34.47;31.13;;;10.00;34.20;;;;;;10327641;28;20227;-76
2022/03/17 07:17:39;;;;;;;33.93;30.63;;;10.00;34.60;;;;;;10327243;28;20238;-76
2022/03/17 07:22:46;;;;;;;32.30;29.17;;;10.00;34.50;;;;;;10327184;28;20806;-76
2022/03/17 07:27:51;;;;;;;34.70;31.27;;;10.10;34.70;;;;;;10327275;28;20231;-76
2022/03/17 07:32:55;;;;;;;33.20;30.00;;;10.10;34.90;;;;;;10326820;28;20571;-76
2022/03/17 07:37:59;;;;;;;34.57;31.17;;;10.20;35.40;;;;;;10326647;28;20289;-76
2022/03/17 07:43:04;;;;;;;32.80;29.70;;;10.30;34.80;;;;;;10326421;28;20243;-74
2022/03/17 07:48:07;;;;;;;32.47;29.27;;;10.30;35.00;;;;;;10326255;28;20235;-74
2022/03/17 07:53:10;;;;;;;34.70;31.17;;;10.40;34.80;;;;;;10326547;28;20318;-76
2022/03/17 07:58:15;;;;;;;35.07;31.67;;;10.50;35.00;;;;;;10322229;28;20227;-73
2022/03/17 08:03:19;;;;;;;34.33;30.93;;;10.50;35.20;;;;;;10325825;28;20721;-73
2022/03/17 08:08:23;;;;;;;35.30;31.93;;;10.60;34.90;;;;;;10331291;28;20226;-73
2022/03/17 08:13:27;;;;;;;32.93;29.70;;;10.70;34.90;;;;;;10332482;28;20597;-73
2022/03/17 08:18:34;;;;;;;35.87;32.23;;;10.80;35.70;;;;;;10322529;28;20242;-73
2022/03/17 08:23:37;;;;;;;35.20;31.77;;;10.80;34.60;;;;;;10332376;28;20254;-73
2022/03/17 08:28:43;;;;;;;35.40;31.90;;;10.90;34.70;;;;;;10322832;28;20236;-73
2022/03/17 08:33:47;;;;;;;32.17;29.03;;;11.00;34.80;;;;;;10327802;28;20239;-73
2022/03/17 08:38:51;;;;;;;34.23;30.90;;;11.00;34.80;;;;;;10327388;28;20809;-73
2022/03/17 08:43:55;;;;;;;33.83;30.43;;;11.10;34.80;;;;;;10325079;28;20239;-74
2022/03/17 08:54:22;;;;;;;34.27;30.93;;;11.30;34.90;;;;;;10311180;28;20222;-74
2022/03/17 08:59:29;;;;;;;33.97;30.40;;;11.40;35.00;;;;;;10316485;28;20242;-74
2022/03/17 09:04:32;;;;;;;33.77;30.43;;;11.50;34.60;;;;;;10320351;28;20242;-76
2022/03/17 09:09:38;;;;;;;35.93;32.43;;;11.60;34.60;;;;;;10328225;28;20579;-75
2022/03/17 09:14:44;;;;;;;33.50;29.93;;;11.60;34.50;;;;;;10318637;28;20231;-73
2022/03/17 09:19:47;;;;;;;33.20;29.97;;;11.70;34.60;;;;;;10320558;28;20246;-73
2022/03/17 09:24:50;;;;;;;33.80;30.47;;;11.70;34.60;;;;;;10320303;28;20243;-73
2022/03/17 09:29:55;;;;;;;34.10;30.60;;;11.80;34.40;;;;;;10319397;28;20227;-73
2022/03/17 09:34:58;;;;;;;32.03;28.90;;;11.90;34.40;;;;;;10319983;28;20309;-72
2022/03/17 09:40:02;;;;;;;31.27;28.17;;;12.00;34.50;;;;;;10323164;28;20227;-74
2022/03/17 09:45:08;;;;;;;31.23;28.23;;;12.10;34.20;;;;;;10321292;28;20631;-73
2022/03/17 09:50:16;;;;;;;32.37;29.27;;;12.20;34.10;;;;;;10330500;28;20235;-73
2022/03/17 09:55:22;;;;;;;31.97;28.87;;;12.30;33.90;;;;;;10330398;28;20226;-73
2022/03/17 10:00:47;;;;;;;29.57;26.67;;;12.40;33.90;;;;;;10330070;28;20243;-75
2022/03/17 10:05:50;;;;;;;30.73;27.67;;;12.50;33.90;;;;;;10328127;28;20731;-73
2022/03/17 10:10:55;;;;;;;29.33;26.53;;;12.60;33.90;;;;;;10335627;28;20242;-72
2022/03/17 10:16:11;;;;;;;27.40;24.80;;;12.60;33.70;;;;;;10329754;28;20587;-73
2022/03/17 10:21:16;;;;;;;28.30;25.43;;;12.70;33.60;;;;;;10331479;28;20233;-73
2022/03/17 10:26:36;;;;;;;28.50;25.80;;;12.80;33.70;;;;;;10331417;28;20321;-73
2022/03/17 10:31:56;;;;;;;27.77;25.07;;;12.90;33.60;;;;;;10326722;28;20245;-72
2022/03/17 10:37:08;;;;;;;30.33;27.43;;;12.90;33.30;;;;;;10321985;28;20258;-72
2022/03/17 10:42:16;;;;;;;29.37;26.57;;;13.00;33.00;;;;;;10329969;28;20230;-73
2022/03/17 10:47:29;;;;;;;30.03;26.90;;;13.10;33.00;;;;;;10315327;28;20254;-72
2022/03/17 10:52:49;;;;;;;28.03;25.23;;;13.20;33.00;;;;;;10329152;28;20261;-72
2022/03/17 10:57:56;;;;;;;28.53;25.63;;;13.30;32.90;;;;;;10331333;28;20237;-73
2022/03/17 11:03:01;;;;;;;27.73;24.83;;;13.30;32.70;;;;;;10320908;28;20249;-73
2022/03/17 11:08:09;;;;;;;28.73;25.83;;;13.40;33.00;;;;;;10314405;28;20310;-73
2022/03/17 11:13:12;;;;;;;27.73;24.80;;;13.40;32.90;;;;;;10314679;28;20823;-73
2022/03/17 11:18:20;;;;;;;26.93;24.40;;;13.40;32.70;;;;;;10312247;28;20235;-73
2022/03/17 11:23:35;;;;;;;27.27;24.37;;;13.50;32.60;;;;;;10315746;28;20251;-76
2022/03/17 11:28:40;;;;;;;25.93;23.43;;;13.50;32.60;;;;;;10315005;28;20334;-73
2022/03/17 11:33:44;;;;;;;23.73;21.47;;;13.60;32.60;;;;;;10318169;28;20247;-74
2022/03/17 11:38:58;;;;;;;25.73;23.13;;;13.60;32.60;;;;;;10314051;28;20233;-74
2022/03/17 11:44:03;;;;;;;23.43;21.20;;;13.70;32.50;;;;;;10313432;28;20239;-73
2022/03/17 11:49:28;;;;;;;24.57;22.17;;;13.70;32.50;;;;;;10310906;28;20237;-72
2022/03/17 11:54:32;;;;;;;25.17;22.83;;;13.80;32.30;;;;;;10320449;28;20235;-76
2022/03/17 11:59:51;;;;;;;27.57;25.00;;;13.80;32.20;;;;;;10323106;28;20226;-75
2022/03/17 12:04:56;;;;;;;26.47;23.77;;;13.90;31.60;;;;;;10323698;28;20234;-75
2022/03/17 12:09:59;;;;;;;25.50;23.10;;;13.80;32.00;;;;;;10329250;28;20261;-75
2022/03/17 12:15:03;;;;;;;25.87;23.07;;;13.90;32.50;;;;;;10334159;28;20231;-74
2022/03/17 12:20:10;;;;;;;26.23;23.63;;;13.90;32.40;;;;;;10327738;28;20237;-75
2022/03/17 12:25:16;;;;;;;27.10;24.50;;;14.00;32.00;;;;;;10332120;28;20253;-75
2022/03/17 12:30:21;;;;;;;27.10;24.63;;;14.10;32.00;;;;;;10330144;28;20776;-76
2022/03/17 12:35:27;;;;;;;26.27;23.70;;;14.20;32.20;;;;;;10329938;28;20241;-76
2022/03/17 12:40:34;;;;;;;27.20;24.70;;;14.20;31.70;;;;;;10333288;28;20612;-76
2022/03/17 12:45:38;;;;;;;27.50;24.77;;;14.40;31.60;;;;;;10326032;28;20233;-74
2022/03/17 12:50:44;;;;;;;28.43;25.63;;;14.40;31.80;;;;;;10335786;28;20226;-76
2022/03/17 12:55:47;;;;;;;28.17;25.47;;;14.50;31.70;;;;;;10365286;28;20250;-76
2022/03/17 13:00:50;;;;;;;26.57;24.10;;;14.50;31.70;;;;;;10365337;28;20230;-77
2022/03/17 13:16:37;;;;;;;26.40;23.93;;;14.60;31.80;;;;;;10325920;28;20239;-76
2022/03/17 13:21:44;;;;;;;27.23;24.67;;;14.70;31.80;;;;;;10333822;28;20277;-78
2022/03/17 13:26:59;;;;;;;24.60;22.30;;;14.70;31.80;;;;;;10331692;28;20744;-76
2022/03/17 13:32:17;;;;;;;27.50;24.90;;;14.70;31.80;;;;;;10353886;28;20240;-74
2022/03/17 13:37:21;;;;;;;26.37;23.87;;;14.70;31.80;;;;;;10366795;28;20329;-77
2022/03/17 13:42:25;;;;;;;25.23;22.83;;;14.80;31.90;;;;;;10331914;28;20560;-77
2022/03/17 13:47:34;;;;;;;25.63;23.03;;;14.80;31.90;;;;;;10330793;28;20235;-75
2022/03/17 13:52:40;;;;;;;25.80;23.17;;;14.80;31.90;;;;;;10307004;28;20327;-77
2022/03/17 13:57:44;;;;;;;24.40;22.03;;;14.90;31.50;;;;;;10338318;28;20245;-77
2022/03/17 14:03:11;;;;;;;25.20;22.57;;;14.90;31.70;;;;;;10329949;28;20616;-73
2022/03/17 14:08:15;;;;;;;23.67;21.50;;;15.00;31.50;;;;;;10330124;28;20237;-77
2022/03/17 14:13:20;;;;;;;24.13;21.97;;;15.00;31.40;;;;;;10328497;28;20250;-76
2022/03/17 14:18:24;;;;;;;24.07;21.57;;;15.10;31.70;;;;;;10326776;28;21014;-76
2022/03/17 14:28:50;;;;;;;22.87;20.67;;;15.10;30.80;;;;;;10329056;28;20230;-76
2022/03/17 14:33:54;;;;;;;22.93;20.83;;;15.10;31.10;;;;;;10328278;28;20731;-74
2022/03/17 14:38:59;;;;;;;22.83;20.63;;;15.10;31.00;;;;;;10328776;28;20237;-76
2022/03/17 14:44:04;;;;;;;23.40;20.90;;;15.10;30.80;;;;;;10336915;28;20281;-78
2022/03/17 14:49:08;;;;;;;21.80;19.77;;;15.10;30.80;;;;;;10325714;28;20691;-77
2022/03/17 14:54:13;;;;;;;24.37;22.03;;;15.20;30.90;;;;;;10328384;28;20726;-77
2022/03/17 14:59:16;;;;;;;24.57;22.20;;;15.20;30.80;;;;;;10317863;28;20234;-78
2022/03/17 15:04:19;;;;;;;22.00;19.90;;;15.20;31.00;;;;;;10324335;28;20233;-76
2022/03/17 15:09:24;;;;;;;21.83;19.63;;;15.20;31.10;;;;;;10335595;28;20238;-75
2022/03/17 15:14:27;;;;;;;22.70;20.43;;;15.20;30.60;;;;;;10331406;28;20289;-76
2022/03/17 15:19:30;;;;;;;22.17;19.97;;;15.30;30.80;;;;;;10327247;28;20588;-78
2022/03/17 15:24:35;;;;;;;23.33;20.93;;;15.20;30.90;;;;;;10326015;28;20241;-77
2022/03/17 15:34:58;;;;;;;21.60;19.60;;;15.30;30.60;;;;;;10330010;28;20250;-79
2022/03/17 15:40:04;;;;;;;21.50;19.20;;;15.30;30.70;;;;;;10334481;28;20223;-77
2022/03/17 15:45:08;;;;;;;22.50;20.30;;;15.30;30.60;;;;;;10326645;28;20231;-78
2022/03/17 15:50:12;;;;;;;22.77;20.50;;;15.20;30.60;;;;;;10326909;28;20223;-77
2022/03/17 15:55:17;;;;;;;23.50;21.03;;;15.20;30.90;;;;;;10315190;28;20247;-76
2022/03/17 16:00:20;;;;;;;21.87;19.67;;;15.20;30.90;;;;;;10320909;28;20230;-77
2022/03/17 16:05:24;;;;;;;22.57;20.27;;;15.20;31.00;;;;;;10332989;28;20242;-77
2022/03/17 16:15:49;;;;;;;23.33;21.13;;;15.10;30.70;;;;;;10331938;28;20741;-75
2022/03/17 16:20:53;;;;;;;23.40;21.10;;;15.10;30.80;;;;;;10325680;28;20235;-76
2022/03/17 16:25:57;;;;;;;23.97;21.67;;;15.00;30.90;;;;;;10329325;28;20257;-76
2022/03/17 16:31:10;;;;;;;21.73;19.57;;;15.00;30.80;;;;;;10328813;28;20237;-76
2022/03/17 16:36:13;;;;;;;22.40;20.40;;;14.90;30.80;;;;;;10332778;28;20233;-77
2022/03/17 16:41:18;;;;;;;23.77;21.33;;;14.90;31.00;;;;;;10334764;28;20231;-74
2022/03/17 16:46:21;;;;;;;23.80;21.50;;;14.90;31.00;;;;;;10318802;28;20253;-74
2022/03/17 16:51:25;;;;;;;22.90;20.70;;;14.80;30.90;;;;;;10332295;28;20233;-76
2022/03/17 16:56:30;;;;;;;23.50;21.30;;;14.80;31.10;;;;;;10340751;28;20258;-76
2022/03/17 17:01:33;;;;;;;25.00;22.60;;;14.80;31.00;;;;;;10339454;28;20579;-76
2022/03/17 17:06:36;;;;;;;24.10;21.73;;;14.70;30.90;;;;;;10344936;28;20237;-76
2022/03/17 17:11:41;;;;;;;22.73;20.30;;;14.60;30.70;;;;;;10335489;28;20231;-76
2022/03/17 17:16:49;;;;;;;24.07;21.57;;;14.50;30.80;;;;;;10348034;28;20240;-77
2022/03/17 17:21:54;;;;;;;23.30;21.13;;;14.40;30.90;;;;;;10346975;28;20230;-76
2022/03/17 17:32:21;;;;;;;21.60;19.50;;;14.30;31.00;;;;;;10348916;28;20237;-78
2022/03/17 17:37:24;;;;;;;22.93;20.67;;;14.30;31.20;;;;;;10344379;28;20242;-76
2022/03/17 17:42:28;;;;;;;20.93;18.97;;;14.20;31.30;;;;;;10345188;28;20234;-75
2022/03/17 17:47:32;;;;;;;24.00;21.70;;;14.20;31.40;;;;;;10346248;28;20257;-76
2022/03/17 17:52:35;;;;;;;24.63;22.17;;;14.20;31.40;;;;;;10343857;28;20231;-76
2022/03/17 17:57:40;;;;;;;26.03;23.37;;;14.20;31.20;;;;;;10348904;28;20231;-76
2022/03/17 18:02:44;;;;;;;24.00;21.70;;;14.20;31.20;;;;;;10340280;28;20270;-76
2022/03/17 18:07:47;;;;;;;24.97;22.47;;;14.20;31.40;;;;;;10332082;28;20237;-75
2022/03/17 18:12:56;;;;;;;25.90;23.50;;;14.10;31.30;;;;;;10339995;28;20248;-75
2022/03/17 18:18:01;;;;;;;25.03;22.63;;;14.10;31.30;;;;;;10332226;28;20246;-75
2022/03/17 18:23:06;;;;;;;26.17;23.67;;;14.10;31.30;;;;;;10336489;28;20233;-76
2022/03/17 18:28:11;;;;;;;24.27;21.77;;;14.00;31.20;;;;;;10332767;28;20227;-76
2022/03/17 18:33:14;;;;;;;25.20;22.70;;;14.00;31.20;;;;;;10333702;28;20238;-75
2022/03/17 18:38:17;;;;;;;25.53;23.03;;;13.90;31.10;;;;;;10343189;28;20247;-76
2022/03/17 18:43:22;;;;;;;25.70;23.17;;;13.90;31.10;;;;;;10339489;28;20226;-75
2022/03/17 18:48:25;;;;;;;23.83;21.53;;;13.90;31.10;;;;;;10330474;28;20231;-76
2022/03/17 18:53:28;;;;;;;23.97;21.67;;;13.90;31.10;;;;;;10334997;28;20256;-75
2022/03/17 18:58:33;;;;;;;24.80;22.27;;;13.80;31.10;;;;;;10334294;28;20237;-76
2022/03/17 19:03:36;;;;;;;24.63;22.00;;;13.80;31.80;;;;;;10331247;28;20241;-75
2022/03/17 19:08:39;;;;;;;23.83;21.50;;;13.70;31.00;;;;;;10328718;28;20231;-75
2022/03/17 19:13:44;;;;;;;25.47;22.97;;;13.70;31.00;;;;;;10325376;28;20243;-75
2022/03/17 19:18:47;;;;;;;21.93;19.67;;;13.70;31.00;;;;;;10342308;28;20231;-75
2022/03/17 19:23:51;;;;;;;25.03;22.40;;;13.70;31.00;;;;;;10341350;28;20679;-75
2022/03/17 19:28:55;;;;;;;23.73;21.37;;;13.60;30.90;;;;;;10344693;28;20598;-75
2022/03/17 19:33:58;;;;;;;24.90;22.40;;;13.60;30.90;;;;;;10339758;28;20243;-75
2022/03/17 19:39:02;;;;;;;23.93;21.63;;;13.70;31.00;;;;;;10338149;28;20595;-75
2022/03/17 19:44:07;;;;;;;21.43;19.43;;;13.60;31.60;;;;;;10334637;28;20231;-75
2022/03/17 19:49:11;;;;;;;21.73;19.73;;;13.60;31.10;;;;;;10340628;28;20237;-76
2022/03/17 19:54:14;;;;;;;23.33;20.90;;;13.60;31.00;;;;;;10334466;28;20253;-76
2022/03/17 19:59:18;;;;;;;19.47;17.50;;;13.60;31.20;;;;;;10340487;28;20761;-75
2022/03/17 20:04:22;;;;;;;24.20;21.90;;;13.50;31.20;;;;;;10335373;28;20243;-75
2022/03/17 20:09:25;;;;;;;18.77;17.03;;;13.50;31.20;;;;;;10338603;28;20238;-74
2022/03/17 20:14:29;;;;;;;20.13;18.23;;;13.50;31.20;;;;;;10326740;28;20238;-75
2022/03/17 20:19:33;;;;;;;24.07;21.80;;;13.40;31.30;;;;;;10334829;28;20227;-73
2022/03/17 20:24:36;;;;;;;23.67;21.30;;;13.40;31.30;;;;;;10325663;28;20250;-73
2022/03/17 20:29:41;;;;;;;20.60;18.50;;;13.40;31.30;;;;;;10320136;28;20888;-73
2022/03/17 20:34:45;;;;;;;23.17;21.07;;;13.30;31.30;;;;;;10323609;28;20249;-75
2022/03/17 20:39:48;;;;;;;19.87;17.97;;;13.30;31.30;;;;;;10330524;28;20229;-75
2022/03/17 20:44:53;;;;;;;24.97;22.33;;;13.30;31.30;;;;;;10328600;28;20245;-75
2022/03/17 20:49:56;;;;;;;25.50;22.80;;;13.20;31.50;;;;;;10331476;28;20237;-75
2022/03/17 20:54:59;;;;;;;23.00;20.90;;;13.20;31.40;;;;;;10329657;28;20245;-74
2022/03/17 21:00:05;;;;;;;19.87;18.00;;;13.20;31.40;;;;;;10324821;28;20786;-73
2022/03/17 21:05:12;;;;;;;24.60;21.70;;;13.10;31.40;;;;;;10324342;28;20235;-74
2022/03/17 21:10:15;;;;;;;22.97;20.70;;;13.10;31.60;;;;;;10329411;28;20246;-73
2022/03/17 21:15:20;;;;;;;25.00;22.30;;;13.00;31.60;;;;;;10327157;28;20595;-74
2022/03/17 21:20:24;;;;;;;23.03;20.73;;;12.90;31.80;;;;;;10330712;28;20245;-73
2022/03/17 21:25:27;;;;;;;24.50;22.00;;;12.90;31.60;;;;;;10330156;28;20255;-73
2022/03/17 21:30:37;;;;;;;22.63;20.53;;;12.90;31.90;;;;;;10332660;28;20725;-73
2022/03/17 21:35:43;;;;;;;25.23;22.63;;;12.80;31.90;;;;;;10330876;28;20265;-73
2022/03/17 21:40:46;;;;;;;25.70;23.10;;;12.70;31.90;;;;;;10329063;28;20237;-73
2022/03/17 21:45:51;;;;;;;25.73;23.23;;;12.70;32.00;;;;;;10324628;28;20738;-73
2022/03/17 21:50:54;;;;;;;26.83;24.17;;;12.60;32.00;;;;;;10320192;28;20234;-73
2022/03/17 21:55:58;;;;;;;27.63;24.90;;;12.60;32.10;;;;;;10315822;28;20237;-73
2022/03/17 22:01:02;;;;;;;22.47;20.30;;;12.50;32.10;;;;;;10324474;28;20246;-74
2022/03/17 22:06:07;;;;;;;25.73;23.13;;;12.50;32.30;;;;;;10310117;28;20254;-74
2022/03/17 22:11:10;;;;;;;26.67;23.97;;;12.40;32.20;;;;;;10309128;28;20230;-74
2022/03/17 22:16:15;;;;;;;27.23;24.43;;;12.50;32.30;;;;;;10307850;28;20255;-74
2022/03/17 22:21:19;;;;;;;30.20;27.20;;;12.40;32.30;;;;;;10314265;28;20238;-74
2022/03/17 22:26:23;;;;;;;29.73;26.63;;;12.40;32.30;;;;;;10311150;28;20734;-74
2022/03/17 22:31:28;;;;;;;30.97;27.87;;;12.40;32.30;;;;;;10307606;28;20237;-74
2022/03/17 22:36:35;;;;;;;29.47;26.27;;;12.30;32.50;;;;;;10311852;28;20293;-74
2022/03/17 22:41:38;;;;;;;30.63;27.50;;;12.20;32.30;;;;;;10307435;28;20226;-74
2022/03/17 22:46:46;;;;;;;29.00;26.07;;;12.20;32.40;;;;;;10303174;28;20250;-74
2022/03/17 22:51:49;;;;;;;28.77;25.93;;;12.10;32.70;;;;;;10300964;28;20247;-74
2022/03/17 22:56:52;;;;;;;26.87;24.10;;;12.00;32.60;;;;;;10304534;28;20250;-74
2022/03/17 23:01:57;;;;;;;25.50;22.83;;;12.00;32.60;;;;;;10297778;28;20253;-74
2022/03/17 23:07:00;;;;;;;28.47;25.50;;;11.90;33.10;;;;;;10293141;28;20716;-74
2022/03/17 23:12:04;;;;;;;27.23;24.63;;;11.80;33.00;;;;;;10296255;28;20227;-74
2022/03/17 23:17:09;;;;;;;30.57;27.33;;;11.80;33.00;;;;;;10299603;28;21070;-74
2022/03/17 23:22:12;;;;;;;29.23;26.20;;;11.80;33.30;;;;;;10310645;28;20254;-74
2022/03/17 23:27:15;;;;;;;30.53;27.47;;;11.80;33.20;;;;;;10311307;28;20238;-74
2022/03/17 23:32:20;;;;;;;29.33;26.33;;;11.80;33.20;;;;;;10302916;28;20237;-74
2022/03/17 23:37:23;;;;;;;29.27;26.17;;;11.80;33.40;;;;;;10305854;28;20238;-74
2022/03/17 23:42:27;;;;;;;27.47;24.77;;;11.80;33.40;;;;;;10309036;28;20321;-74
2022/03/17 23:47:32;;;;;;;26.83;24.10;;;11.80;33.20;;;;;;10311873;28;20613;-74
2022/03/17 23:52:38;;;;;;;28.90;26.03;;;11.80;33.50;;;;;;10299845;28;20238;-73
2022/03/17 23:57:42;;;;;;;27.40;24.80;;;11.80;33.50;;;;;;10297668;28;20324;-74
